createdAt,value
2018-01-04T00:00:22.952Z,7.29
2018-01-04T00:01:22.968Z,7.35
2018-01-04T00:02:22.986Z,7.39
2018-01-04T00:03:23.003Z,7.42
2018-01-04T00:04:23.020Z,7.33
2018-01-04T00:05:23.037Z,7.39
2018-01-04T00:06:23.055Z,7.45
2018-01-04T00:07:23.127Z,7.36
2018-01-04T00:08:23.087Z,7.38
2018-01-04T00:09:23.105Z,7.35
2018-01-04T00:10:23.123Z,7.29
2018-01-04T00:11:23.141Z,7.35
2018-01-04T00:12:23.156Z,7.32
2018-01-04T00:13:23.176Z,7.42
2018-01-04T00:14:23.192Z,7.45
2018-01-04T00:15:23.209Z,7.33
2018-01-04T00:16:23.226Z,7.38
2018-01-04T00:17:23.244Z,7.32
2018-01-04T00:18:23.261Z,7.35
2018-01-04T00:19:23.278Z,7.32
2018-01-04T00:20:23.294Z,7.29
2018-01-04T00:21:23.311Z,7.32
2018-01-04T00:22:23.330Z,7.32
2018-01-04T00:23:23.346Z,7.38
2018-01-04T00:24:23.362Z,7.42
2018-01-04T00:25:23.388Z,7.39
2018-01-04T00:26:23.398Z,7.40
2018-01-04T00:27:23.414Z,7.39
2018-01-04T00:28:23.431Z,7.31
2018-01-04T00:29:23.450Z,7.33
2018-01-04T00:30:23.467Z,7.29
2018-01-04T00:31:23.484Z,7.32
2018-01-04T00:32:23.503Z,7.38
2018-01-04T00:33:23.519Z,7.32
2018-01-04T00:34:23.535Z,7.39
2018-01-04T00:35:23.555Z,7.32
2018-01-04T00:36:23.623Z,7.43
2018-01-04T00:37:23.587Z,7.33
2018-01-04T00:38:23.607Z,7.33
2018-01-04T00:39:23.623Z,7.36
2018-01-04T00:40:23.639Z,7.45
2018-01-04T00:41:23.657Z,7.45
2018-01-04T00:42:23.675Z,7.50
2018-01-04T00:43:23.692Z,7.39
2018-01-04T00:44:23.710Z,7.50
2018-01-04T00:45:23.727Z,7.50
2018-01-04T00:46:23.743Z,7.39
2018-01-04T00:47:23.761Z,7.38
2018-01-04T00:48:23.777Z,7.42
2018-01-04T00:49:23.796Z,7.36
2018-01-04T00:50:23.812Z,7.36
2018-01-04T00:51:23.830Z,7.39
2018-01-04T00:52:23.848Z,7.36
2018-01-04T00:53:23.863Z,7.33
2018-01-04T00:54:23.882Z,7.33
2018-01-04T00:55:23.900Z,7.31
2018-01-04T00:56:23.915Z,7.31
2018-01-04T00:57:23.933Z,7.31
2018-01-04T00:58:23.950Z,7.32
2018-01-04T00:59:24.014Z,7.31
2018-01-04T01:00:23.984Z,7.29
2018-01-04T01:01:24.002Z,7.32
2018-01-04T01:02:24.020Z,7.39
2018-01-04T01:03:24.037Z,7.43
2018-01-04T01:04:24.056Z,7.45
2018-01-04T01:05:24.073Z,7.39
2018-01-04T01:06:24.090Z,7.38
2018-01-04T01:07:24.106Z,7.39
2018-01-04T01:08:24.123Z,7.47
2018-01-04T01:09:24.140Z,7.39
2018-01-04T01:10:24.158Z,7.43
2018-01-04T01:11:24.174Z,7.47
2018-01-04T01:12:24.193Z,7.43
2018-01-04T01:13:24.210Z,7.36
2018-01-04T01:14:24.228Z,7.36
2018-01-04T01:15:24.245Z,7.38
2018-01-04T01:16:24.264Z,7.43
2018-01-04T01:17:24.278Z,7.40
2018-01-04T01:18:24.296Z,7.40
2018-01-04T01:19:24.313Z,7.50
2018-01-04T01:20:24.330Z,7.47
2018-01-04T01:21:24.347Z,7.45
2018-01-04T01:22:24.365Z,7.51
2018-01-04T01:23:24.382Z,7.40
2018-01-04T01:24:24.401Z,7.50
2018-01-04T01:25:24.417Z,7.45
2018-01-04T01:26:24.434Z,7.51
2018-01-04T01:27:24.452Z,7.48
2018-01-04T01:28:24.469Z,7.51
2018-01-04T01:29:24.486Z,7.50
2018-01-04T01:30:24.503Z,7.56
2018-01-04T01:31:24.521Z,7.48
2018-01-04T01:32:24.537Z,7.50
2018-01-04T01:33:24.555Z,7.50
2018-01-04T01:34:24.573Z,7.53
2018-01-04T01:35:24.590Z,7.54
2018-01-04T01:36:24.607Z,7.56
2018-01-04T01:37:24.628Z,7.57
2018-01-04T01:38:24.642Z,7.56
2018-01-04T01:39:24.660Z,7.70
2018-01-04T01:40:24.677Z,7.67
2018-01-04T01:41:24.694Z,7.66
2018-01-04T01:42:24.710Z,7.60
2018-01-04T01:43:24.729Z,7.60
2018-01-04T01:44:24.746Z,7.63
2018-01-04T01:45:24.763Z,7.70
2018-01-04T01:46:24.781Z,7.66
2018-01-04T01:47:24.797Z,7.63
2018-01-04T01:48:24.815Z,7.63
2018-01-04T01:49:24.832Z,7.63
2018-01-04T01:50:24.849Z,7.72
2018-01-04T01:51:24.868Z,7.67
2018-01-04T01:52:24.883Z,7.70
2018-01-04T01:53:24.902Z,7.67
2018-01-04T01:54:24.920Z,7.67
2018-01-04T01:55:24.937Z,7.67
2018-01-04T01:56:24.956Z,7.73
2018-01-04T01:57:24.971Z,7.67
2018-01-04T01:58:24.990Z,7.61
2018-01-04T01:59:25.008Z,7.66
2018-01-04T02:00:25.025Z,7.79
2018-01-04T02:01:25.041Z,7.66
2018-01-04T02:02:25.059Z,7.77
2018-01-04T02:03:25.076Z,7.63
2018-01-04T02:04:25.093Z,7.63
2018-01-04T02:05:25.111Z,7.77
2018-01-04T02:06:25.128Z,7.79
2018-01-04T02:07:25.158Z,7.63
2018-01-04T02:08:25.164Z,7.66
2018-01-04T02:09:25.181Z,7.67
2018-01-04T02:10:25.198Z,7.75
2018-01-04T02:11:25.216Z,7.77
2018-01-04T02:12:25.232Z,7.76
2018-01-04T02:13:25.250Z,7.66
2018-01-04T02:14:25.268Z,7.66
2018-01-04T02:15:25.285Z,7.61
2018-01-04T02:16:25.303Z,7.67
2018-01-04T02:17:25.319Z,7.66
2018-01-04T02:18:25.338Z,7.56
2018-01-04T02:19:25.354Z,7.58
2018-01-04T02:20:25.377Z,7.66
2018-01-04T02:21:25.390Z,7.57
2018-01-04T02:22:25.407Z,7.66
2018-01-04T02:23:25.425Z,7.63
2018-01-04T02:24:25.442Z,7.70
2018-01-04T02:25:25.460Z,7.58
2018-01-04T02:26:25.480Z,7.51
2018-01-04T02:27:25.495Z,7.61
2018-01-04T02:28:25.512Z,7.60
2018-01-04T02:29:25.529Z,7.72
2018-01-04T02:30:25.547Z,7.67
2018-01-04T02:31:25.565Z,7.66
2018-01-04T02:32:25.582Z,7.60
2018-01-04T02:33:25.600Z,7.63
2018-01-04T02:34:25.616Z,7.66
2018-01-04T02:35:25.634Z,7.73
2018-01-04T02:36:25.653Z,7.66
2018-01-04T02:37:25.669Z,7.61
2018-01-04T02:38:25.686Z,7.73
2018-01-04T02:39:25.704Z,7.61
2018-01-04T02:40:25.721Z,7.66
2018-01-04T02:41:25.738Z,7.69
2018-01-04T02:42:25.757Z,7.69
2018-01-04T02:43:25.774Z,7.58
2018-01-04T02:44:25.789Z,7.67
2018-01-04T02:45:25.807Z,7.67
2018-01-04T02:46:25.826Z,7.63
2018-01-04T02:47:25.844Z,7.63
2018-01-04T02:48:25.859Z,7.66
2018-01-04T02:49:25.879Z,7.57
2018-01-04T02:50:25.896Z,7.58
2018-01-04T02:51:25.913Z,7.66
2018-01-04T02:52:25.930Z,7.60
2018-01-04T02:53:25.948Z,7.58
2018-01-04T02:54:25.967Z,7.61
2018-01-04T02:55:25.984Z,7.63
2018-01-04T02:56:25.999Z,7.70
2018-01-04T02:57:26.018Z,7.61
2018-01-04T02:58:26.036Z,7.61
2018-01-04T02:59:26.055Z,7.50
2018-01-04T03:00:26.071Z,7.54
2018-01-04T03:01:26.088Z,7.58
2018-01-04T03:02:26.104Z,7.48
2018-01-04T03:03:26.123Z,7.48
2018-01-04T03:04:26.140Z,7.51
2018-01-04T03:05:26.158Z,7.53
2018-01-04T03:06:26.175Z,7.45
2018-01-04T03:07:26.193Z,7.45
2018-01-04T03:08:26.210Z,7.38
2018-01-04T03:09:26.227Z,7.38
2018-01-04T03:10:26.245Z,7.42
2018-01-04T03:11:26.263Z,7.40
2018-01-04T03:12:26.279Z,7.48
2018-01-04T03:13:26.297Z,7.50
2018-01-04T03:14:26.316Z,7.40
2018-01-04T03:15:26.333Z,7.42
2018-01-04T03:16:26.350Z,7.47
2018-01-04T03:17:26.366Z,7.43
2018-01-04T03:18:26.384Z,7.53
2018-01-04T03:19:26.403Z,7.50
2018-01-04T03:20:26.419Z,7.48
2018-01-04T03:21:26.437Z,7.51
2018-01-04T03:22:26.455Z,7.50
2018-01-04T03:23:26.472Z,7.50
2018-01-04T03:24:26.488Z,7.48
2018-01-04T03:25:26.505Z,7.56
2018-01-04T03:26:26.525Z,7.54
2018-01-04T03:27:26.542Z,7.56
2018-01-04T03:28:26.559Z,7.53
2018-01-04T03:29:26.576Z,7.53
2018-01-04T03:30:26.596Z,7.51
2018-01-04T03:31:26.611Z,7.51
2018-01-04T03:32:26.628Z,7.54
2018-01-04T03:33:26.646Z,7.50
2018-01-04T03:34:26.665Z,7.54
2018-01-04T03:35:26.682Z,7.53
2018-01-04T03:36:26.699Z,7.53
2018-01-04T03:37:26.722Z,7.53
2018-01-04T03:38:26.733Z,7.51
2018-01-04T03:39:26.757Z,7.53
2018-01-04T03:40:26.768Z,7.53
2018-01-04T03:41:26.787Z,7.53
2018-01-04T03:42:26.804Z,7.58
2018-01-04T03:43:26.822Z,7.53
2018-01-04T03:44:26.838Z,7.57
2018-01-04T03:45:26.859Z,7.53
2018-01-04T03:46:26.872Z,7.51
2018-01-04T03:47:26.891Z,7.57
2018-01-04T03:48:26.908Z,7.63
2018-01-04T03:49:26.926Z,7.50
2018-01-04T03:50:26.943Z,7.61
2018-01-04T03:51:26.962Z,7.61
2018-01-04T03:52:26.979Z,7.63
2018-01-04T03:53:26.996Z,7.61
2018-01-04T03:54:27.014Z,7.67
2018-01-04T03:55:27.030Z,7.63
2018-01-04T03:56:27.047Z,7.56
2018-01-04T03:57:27.064Z,7.57
2018-01-04T03:58:27.083Z,7.51
2018-01-04T03:59:27.105Z,7.53
2018-01-04T04:00:27.117Z,7.54
2018-01-04T04:01:27.136Z,7.53
2018-01-04T04:02:27.154Z,7.58
2018-01-04T04:03:27.171Z,7.57
2018-01-04T04:04:27.187Z,7.60
2018-01-04T04:05:27.206Z,7.53
2018-01-04T04:06:27.224Z,7.53
2018-01-04T04:07:27.242Z,7.54
2018-01-04T04:08:27.258Z,7.54
2018-01-04T04:09:27.276Z,7.50
2018-01-04T04:10:27.293Z,7.51
2018-01-04T04:11:27.325Z,7.53
2018-01-04T04:12:27.328Z,7.57
2018-01-04T04:13:27.346Z,7.54
2018-01-04T04:14:27.364Z,7.51
2018-01-04T04:15:27.380Z,7.51
2018-01-04T04:16:27.398Z,7.50
2018-01-04T04:17:27.414Z,7.56
2018-01-04T04:18:27.467Z,7.50
2018-01-04T04:19:27.450Z,7.66
2018-01-04T04:20:27.467Z,7.66
2018-01-04T04:21:27.484Z,7.67
2018-01-04T04:22:27.502Z,7.67
2018-01-04T04:23:27.521Z,7.70
2018-01-04T04:24:27.536Z,7.75
2018-01-04T04:25:27.557Z,7.73
2018-01-04T04:26:27.576Z,7.76
2018-01-04T04:27:27.589Z,7.79
2018-01-04T04:28:27.606Z,7.80
2018-01-04T04:29:27.625Z,7.83
2018-01-04T04:30:27.645Z,7.82
2018-01-04T04:31:27.658Z,7.88
2018-01-04T04:32:27.676Z,7.80
2018-01-04T04:33:27.695Z,7.85
2018-01-04T04:34:27.714Z,7.80
2018-01-04T04:35:27.730Z,7.83
2018-01-04T04:36:27.746Z,7.85
2018-01-04T04:37:27.763Z,7.79
2018-01-04T04:38:27.781Z,7.82
2018-01-04T04:39:27.799Z,7.79
2018-01-04T04:40:27.816Z,7.85
2018-01-04T04:41:27.835Z,7.85
2018-01-04T04:42:27.898Z,7.87
2018-01-04T04:43:27.870Z,7.77
2018-01-04T04:44:27.890Z,7.83
2018-01-04T04:45:27.905Z,7.85
2018-01-04T04:46:27.923Z,7.82
2018-01-04T04:47:27.939Z,7.80
2018-01-04T04:48:27.957Z,7.73
2018-01-04T04:49:27.975Z,7.75
2018-01-04T04:50:27.992Z,7.75
2018-01-04T04:51:28.010Z,7.72
2018-01-04T04:52:28.026Z,7.83
2018-01-04T04:53:28.044Z,7.76
2018-01-04T04:54:28.068Z,7.67
2018-01-04T04:55:28.080Z,7.79
2018-01-04T04:56:28.096Z,7.66
2018-01-04T04:57:28.114Z,7.60
2018-01-04T04:58:28.133Z,7.72
2018-01-04T04:59:28.150Z,7.66
2018-01-04T05:00:28.168Z,7.73
2018-01-04T05:01:28.185Z,7.72
2018-01-04T05:02:28.202Z,7.69
2018-01-04T05:03:28.221Z,7.66
2018-01-04T05:04:28.238Z,7.72
2018-01-04T05:05:28.254Z,7.66
2018-01-04T05:06:28.273Z,7.60
2018-01-04T05:07:28.291Z,7.63
2018-01-04T05:08:28.309Z,7.69
2018-01-04T05:09:28.325Z,7.67
2018-01-04T05:10:28.343Z,7.72
2018-01-04T05:11:28.360Z,7.70
2018-01-04T05:12:28.380Z,7.66
2018-01-04T05:13:28.398Z,7.72
2018-01-04T05:14:28.414Z,7.66
2018-01-04T05:15:28.431Z,7.72
2018-01-04T05:16:28.448Z,7.66
2018-01-04T05:17:28.465Z,7.67
2018-01-04T05:18:28.484Z,7.70
2018-01-04T05:19:28.502Z,7.58
2018-01-04T05:20:28.517Z,7.72
2018-01-04T05:21:28.536Z,7.67
2018-01-04T05:22:28.554Z,7.73
2018-01-04T05:23:28.572Z,7.63
2018-01-04T05:24:28.589Z,7.66
2018-01-04T05:25:28.608Z,7.70
2018-01-04T05:26:28.625Z,7.69
2018-01-04T05:27:28.642Z,7.67
2018-01-04T05:28:28.658Z,7.70
2018-01-04T05:29:28.677Z,7.63
2018-01-04T05:30:28.696Z,7.67
2018-01-04T05:31:28.712Z,7.75
2018-01-04T05:32:28.729Z,7.69
2018-01-04T05:33:28.747Z,7.69
2018-01-04T05:34:28.765Z,7.63
2018-01-04T05:35:28.782Z,7.69
2018-01-04T05:36:28.806Z,7.66
2018-01-04T05:37:28.820Z,7.61
2018-01-04T05:38:28.835Z,7.69
2018-01-04T05:39:28.853Z,7.63
2018-01-04T05:40:28.869Z,7.61
2018-01-04T05:41:28.888Z,7.61
2018-01-04T05:42:28.905Z,7.56
2018-01-04T05:43:28.923Z,7.63
2018-01-04T05:44:28.940Z,7.60
2018-01-04T05:45:28.959Z,7.63
2018-01-04T05:46:28.976Z,7.63
2018-01-04T05:47:28.994Z,7.57
2018-01-04T05:48:29.110Z,7.67
2018-01-04T05:49:29.028Z,7.61
2018-01-04T05:50:29.049Z,7.61
2018-01-04T05:51:29.064Z,7.66
2018-01-04T05:52:29.081Z,7.61
2018-01-04T05:53:29.099Z,7.66
2018-01-04T05:54:29.116Z,7.61
2018-01-04T05:55:29.135Z,7.60
2018-01-04T05:56:29.152Z,7.63
2018-01-04T05:57:29.169Z,7.60
2018-01-04T05:58:29.186Z,7.63
2018-01-04T05:59:29.203Z,7.51
2018-01-04T06:00:29.222Z,7.61
2018-01-04T06:01:29.238Z,7.60
2018-01-04T06:02:29.258Z,7.50
2018-01-04T06:03:29.277Z,7.63
2018-01-04T06:04:29.391Z,7.51
2018-01-04T06:05:29.310Z,7.47
2018-01-04T06:06:29.327Z,7.54
2018-01-04T06:07:29.345Z,7.56
2018-01-04T06:08:29.362Z,7.70
2018-01-04T06:09:29.379Z,7.66
2018-01-04T06:10:29.397Z,7.61
2018-01-04T06:11:29.416Z,7.67
2018-01-04T06:12:29.433Z,7.67
2018-01-04T06:13:29.450Z,7.58
2018-01-04T06:14:29.467Z,7.63
2018-01-04T06:15:29.486Z,7.66
2018-01-04T06:16:29.503Z,7.66
2018-01-04T06:17:29.520Z,7.67
2018-01-04T06:18:29.537Z,7.70
2018-01-04T06:19:29.555Z,7.63
2018-01-04T06:20:29.576Z,7.75
2018-01-04T06:21:29.589Z,7.80
2018-01-04T06:22:29.608Z,7.80
2018-01-04T06:23:29.625Z,7.76
2018-01-04T06:24:29.642Z,7.73
2018-01-04T06:25:29.659Z,7.66
2018-01-04T06:26:29.678Z,7.63
2018-01-04T06:27:29.696Z,7.63
2018-01-04T06:28:29.713Z,7.75
2018-01-04T06:29:29.730Z,7.79
2018-01-04T06:30:29.748Z,7.69
2018-01-04T06:31:29.767Z,7.66
2018-01-04T06:32:29.781Z,7.76
2018-01-04T06:33:29.800Z,7.72
2018-01-04T06:34:29.817Z,7.69
2018-01-04T06:35:29.835Z,7.69
2018-01-04T06:36:29.852Z,7.61
2018-01-04T06:37:29.871Z,7.67
2018-01-04T06:38:29.888Z,7.75
2018-01-04T06:39:29.905Z,7.66
2018-01-04T06:40:29.923Z,7.67
2018-01-04T06:41:29.942Z,7.67
2018-01-04T06:42:29.959Z,7.63
2018-01-04T06:43:29.976Z,7.50
2018-01-04T06:44:29.994Z,7.66
2018-01-04T06:45:30.013Z,7.61
2018-01-04T06:46:30.034Z,7.57
2018-01-04T06:47:30.047Z,7.54
2018-01-04T06:48:30.062Z,7.50
2018-01-04T06:49:30.081Z,7.39
2018-01-04T06:50:30.098Z,7.54
2018-01-04T06:51:30.117Z,7.51
2018-01-04T06:52:30.133Z,7.48
2018-01-04T06:53:30.151Z,7.50
2018-01-04T06:54:30.170Z,7.50
2018-01-04T06:55:30.188Z,7.54
2018-01-04T06:56:30.204Z,7.47
2018-01-04T06:57:30.224Z,7.53
2018-01-04T06:58:30.239Z,7.53
2018-01-04T06:59:30.258Z,7.53
2018-01-04T07:00:30.274Z,7.60
2018-01-04T07:01:30.292Z,7.60
2018-01-04T07:02:30.313Z,7.53
2018-01-04T07:03:30.333Z,7.51
2018-01-04T07:04:30.344Z,7.61
2018-01-04T07:05:30.363Z,7.53
2018-01-04T07:06:30.380Z,7.54
2018-01-04T07:07:30.398Z,7.56
2018-01-04T07:08:30.414Z,7.54
2018-01-04T07:09:30.434Z,7.57
2018-01-04T07:10:30.449Z,7.56
2018-01-04T07:11:30.471Z,7.51
2018-01-04T07:12:30.484Z,7.54
2018-01-04T07:13:30.502Z,7.57
2018-01-04T07:14:30.520Z,7.56
2018-01-04T07:15:30.538Z,7.56
2018-01-04T07:16:30.555Z,7.58
2018-01-04T07:17:30.572Z,7.60
2018-01-04T07:18:30.591Z,7.58
2018-01-04T07:19:30.608Z,7.58
2018-01-04T07:20:30.624Z,7.63
2018-01-04T07:21:30.642Z,7.60
2018-01-04T07:22:30.663Z,7.70
2018-01-04T07:23:30.679Z,7.60
2018-01-04T07:24:30.695Z,7.61
2018-01-04T07:25:30.712Z,7.57
2018-01-04T07:26:30.732Z,7.63
2018-01-04T07:27:30.749Z,7.73
2018-01-04T07:28:30.766Z,7.60
2018-01-04T07:29:30.783Z,7.69
2018-01-04T07:30:30.801Z,7.69
2018-01-04T07:31:30.822Z,7.80
2018-01-04T07:32:30.836Z,7.82
2018-01-04T07:33:30.853Z,7.85
2018-01-04T07:34:30.872Z,7.70
2018-01-04T07:35:30.890Z,7.70
2018-01-04T07:36:30.906Z,7.79
2018-01-04T07:37:30.926Z,7.82
2018-01-04T07:38:30.942Z,7.79
2018-01-04T07:39:30.959Z,7.82
2018-01-04T07:40:30.977Z,7.75
2018-01-04T07:41:30.995Z,7.79
2018-01-04T07:42:31.013Z,7.79
2018-01-04T07:43:31.031Z,7.80
2018-01-04T07:44:31.047Z,7.80
2018-01-04T07:45:31.067Z,7.79
2018-01-04T07:46:31.083Z,7.80
2018-01-04T07:47:31.100Z,7.77
2018-01-04T07:48:31.119Z,7.82
2018-01-04T07:49:31.136Z,7.80
2018-01-04T07:50:31.155Z,7.82
2018-01-04T07:51:31.171Z,7.82
2018-01-04T07:52:31.190Z,7.80
2018-01-04T07:53:31.207Z,7.79
2018-01-04T07:54:31.224Z,7.80
2018-01-04T07:55:31.242Z,7.85
2018-01-04T07:56:31.260Z,7.85
2018-01-04T07:57:31.276Z,7.83
2018-01-04T07:58:31.295Z,7.85
2018-01-04T07:59:31.316Z,7.94
2018-01-04T08:00:31.346Z,7.85
2018-01-04T08:01:31.348Z,7.83
2018-01-04T08:02:31.366Z,7.83
2018-01-04T08:03:31.385Z,7.95
2018-01-04T08:04:31.406Z,7.90
2018-01-04T08:05:31.418Z,7.94
2018-01-04T08:06:31.438Z,7.90
2018-01-04T08:07:31.455Z,7.97
2018-01-04T08:08:31.472Z,7.95
2018-01-04T08:09:31.490Z,7.97
2018-01-04T08:10:31.508Z,7.95
2018-01-04T08:11:31.529Z,7.94
2018-01-04T08:12:31.542Z,7.98
2018-01-04T08:13:31.561Z,7.94
2018-01-04T08:14:31.580Z,7.93
2018-01-04T08:15:31.596Z,7.95
2018-01-04T08:16:31.614Z,7.95
2018-01-04T08:17:31.632Z,7.98
2018-01-04T08:18:31.651Z,7.88
2018-01-04T08:19:31.667Z,7.91
2018-01-04T08:20:31.685Z,7.97
2018-01-04T08:21:31.703Z,7.94
2018-01-04T08:22:31.720Z,7.93
2018-01-04T08:23:31.739Z,7.90
2018-01-04T08:24:31.756Z,7.93
2018-01-04T08:25:31.781Z,7.93
2018-01-04T08:26:31.993Z,7.98
2018-01-04T08:27:31.812Z,8.00
2018-01-04T08:28:31.829Z,8.00
2018-01-04T08:29:31.996Z,7.98
2018-01-04T08:30:31.865Z,8.03
2018-01-04T08:31:31.882Z,8.00
2018-01-04T08:32:31.899Z,8.05
2018-01-04T08:33:31.917Z,8.00
2018-01-04T08:34:31.935Z,8.03
2018-01-04T08:35:31.953Z,8.03
2018-01-04T08:36:31.970Z,7.98
2018-01-04T08:37:31.988Z,8.05
2018-01-04T08:38:32.008Z,8.00
2018-01-04T08:39:32.024Z,8.03
2018-01-04T08:40:32.050Z,8.05
2018-01-04T08:41:32.060Z,7.98
2018-01-04T08:42:32.078Z,7.98
2018-01-04T08:43:32.097Z,8.05
2018-01-04T08:44:32.113Z,8.00
2018-01-04T08:45:32.149Z,8.06
2018-01-04T08:46:32.152Z,8.01
2018-01-04T08:47:32.168Z,8.03
2018-01-04T08:48:32.185Z,8.03
2018-01-04T08:49:32.203Z,8.08
2018-01-04T08:50:32.222Z,8.01
2018-01-04T08:51:32.245Z,8.03
2018-01-04T08:52:32.258Z,8.05
2018-01-04T08:53:32.275Z,8.05
2018-01-04T08:54:32.293Z,8.05
2018-01-04T08:55:32.312Z,8.05
2018-01-04T08:56:32.329Z,8.08
2018-01-04T08:57:32.349Z,8.09
2018-01-04T08:58:32.364Z,8.15
2018-01-04T08:59:32.384Z,8.12
2018-01-04T09:00:32.400Z,8.16
2018-01-04T09:01:32.418Z,8.13
2018-01-04T09:02:32.436Z,8.15
2018-01-04T09:03:32.455Z,8.15
2018-01-04T09:04:32.472Z,8.16
2018-01-04T09:05:32.491Z,8.12
2018-01-04T09:06:32.513Z,8.03
2018-01-04T09:07:32.526Z,8.10
2018-01-04T09:08:32.545Z,8.08
2018-01-04T09:09:32.563Z,8.18
2018-01-04T09:10:32.593Z,8.15
2018-01-04T09:11:32.599Z,8.26
2018-01-04T09:12:32.617Z,8.13
2018-01-04T09:13:32.635Z,8.27
2018-01-04T09:14:32.652Z,8.18
2018-01-04T09:15:32.673Z,8.19
2018-01-04T09:16:32.689Z,8.19
2018-01-04T09:17:32.707Z,8.23
2018-01-04T09:18:32.737Z,8.19
2018-01-04T09:19:32.744Z,8.20
2018-01-04T09:20:32.760Z,8.26
2018-01-04T09:21:32.779Z,8.20
2018-01-04T09:22:32.797Z,8.20
2018-01-04T09:23:32.817Z,8.18
2018-01-04T09:24:32.835Z,8.19
2018-01-04T09:25:32.851Z,8.28
2018-01-04T09:26:32.870Z,8.31
2018-01-04T09:27:32.887Z,8.24
2018-01-04T09:28:32.906Z,8.24
2018-01-04T09:29:32.924Z,8.23
2018-01-04T09:30:32.942Z,8.28
2018-01-04T09:31:32.959Z,8.31
2018-01-04T09:32:32.980Z,8.31
2018-01-04T09:33:32.996Z,8.37
2018-01-04T09:34:33.014Z,8.36
2018-01-04T09:35:33.032Z,8.34
2018-01-04T09:36:33.051Z,8.37
2018-01-04T09:37:33.069Z,8.30
2018-01-04T09:38:33.087Z,8.30
2018-01-04T09:39:33.105Z,8.34
2018-01-04T09:40:33.322Z,8.38
2018-01-04T09:41:33.142Z,8.37
2018-01-04T09:42:33.160Z,8.36
2018-01-04T09:43:33.181Z,8.38
2018-01-04T09:44:33.196Z,8.36
2018-01-04T09:45:33.214Z,8.42
2018-01-04T09:46:33.234Z,8.38
2018-01-04T09:47:33.251Z,8.36
2018-01-04T09:48:33.267Z,8.34
2018-01-04T09:49:33.286Z,8.37
2018-01-04T09:50:33.310Z,8.37
2018-01-04T09:51:33.324Z,8.33
2018-01-04T09:52:33.341Z,8.37
2018-01-04T09:53:33.359Z,8.42
2018-01-04T09:54:33.378Z,8.38
2018-01-04T09:55:33.398Z,8.37
2018-01-04T09:56:33.412Z,8.36
2018-01-04T09:57:33.432Z,8.37
2018-01-04T09:58:33.450Z,8.33
2018-01-04T09:59:33.467Z,8.38
2018-01-04T10:00:33.486Z,8.38
2018-01-04T10:01:33.505Z,8.37
2018-01-04T10:02:33.523Z,8.41
2018-01-04T10:03:33.541Z,8.44
2018-01-04T10:04:33.560Z,8.45
2018-01-04T10:05:33.577Z,8.53
2018-01-04T10:06:33.596Z,8.52
2018-01-04T10:07:33.614Z,8.49
2018-01-04T10:08:33.631Z,8.52
2018-01-04T10:09:33.649Z,8.48
2018-01-04T10:10:33.668Z,8.58
2018-01-04T10:11:33.686Z,8.51
2018-01-04T10:12:33.704Z,8.56
2018-01-04T10:13:33.723Z,8.48
2018-01-04T10:14:33.741Z,8.58
2018-01-04T10:15:33.758Z,8.58
2018-01-04T10:16:33.776Z,8.53
2018-01-04T10:17:33.797Z,8.56
2018-01-04T10:18:33.818Z,8.58
2018-01-04T10:19:33.832Z,8.52
2018-01-04T10:20:33.850Z,8.58
2018-01-04T10:21:33.868Z,8.56
2018-01-04T10:22:33.886Z,8.63
2018-01-04T10:23:33.904Z,8.60
2018-01-04T10:24:33.923Z,8.66
2018-01-04T10:25:33.940Z,8.66
2018-01-04T10:26:34.009Z,8.66
2018-01-04T10:27:33.979Z,8.60
2018-01-04T10:28:33.995Z,8.58
2018-01-04T10:29:34.014Z,8.55
2018-01-04T10:30:34.033Z,8.66
2018-01-04T10:31:34.050Z,8.61
2018-01-04T10:32:34.068Z,8.56
2018-01-04T10:33:34.086Z,8.67
2018-01-04T10:34:34.108Z,8.64
2018-01-04T10:35:34.124Z,8.69
2018-01-04T10:36:34.140Z,8.76
2018-01-04T10:37:34.160Z,8.74
2018-01-04T10:38:34.179Z,8.64
2018-01-04T10:39:34.198Z,8.70
2018-01-04T10:40:34.215Z,8.70
2018-01-04T10:41:34.237Z,8.74
2018-01-04T10:42:34.253Z,8.73
2018-01-04T10:43:34.271Z,8.71
2018-01-04T10:44:34.289Z,8.67
2018-01-04T10:45:34.307Z,8.71
2018-01-04T10:46:34.326Z,8.73
2018-01-04T10:47:34.350Z,8.78
2018-01-04T10:48:34.362Z,8.69
2018-01-04T10:49:34.380Z,8.66
2018-01-04T10:50:34.400Z,8.78
2018-01-04T10:51:34.419Z,8.84
2018-01-04T10:52:34.436Z,8.70
2018-01-04T10:53:34.455Z,8.71
2018-01-04T10:54:34.474Z,8.71
2018-01-04T10:55:34.492Z,8.67
2018-01-04T10:56:34.510Z,8.74
2018-01-04T10:57:34.529Z,8.79
2018-01-04T10:58:34.548Z,8.85
2018-01-04T10:59:34.566Z,8.79
2018-01-04T11:00:34.585Z,8.82
2018-01-04T11:01:34.604Z,8.85
2018-01-04T11:02:34.621Z,8.89
2018-01-04T11:03:34.642Z,8.95
2018-01-04T11:04:34.659Z,8.91
2018-01-04T11:05:34.684Z,8.88
2018-01-04T11:06:34.696Z,8.88
2018-01-04T11:07:34.716Z,9.04
2018-01-04T11:08:34.733Z,9.00
2018-01-04T11:09:34.753Z,9.08
2018-01-04T11:10:34.771Z,9.11
2018-01-04T11:11:34.837Z,8.97
2018-01-04T11:12:34.806Z,9.03
2018-01-04T11:13:34.825Z,9.02
2018-01-04T11:14:34.845Z,9.03
2018-01-04T11:15:34.865Z,9.02
2018-01-04T11:16:34.882Z,9.04
2018-01-04T11:17:34.902Z,9.02
2018-01-04T11:18:34.922Z,9.04
2018-01-04T11:19:34.940Z,8.99
2018-01-04T11:20:34.956Z,8.95
2018-01-04T11:21:34.976Z,8.88
2018-01-04T11:22:34.993Z,8.84
2018-01-04T11:23:35.013Z,8.85
2018-01-04T11:24:35.032Z,8.85
2018-01-04T11:25:35.051Z,8.82
2018-01-04T11:26:35.073Z,8.82
2018-01-04T11:27:35.089Z,8.92
2018-01-04T11:28:35.109Z,8.91
2018-01-04T11:29:35.126Z,8.99
2018-01-04T11:30:35.145Z,9.00
2018-01-04T11:31:35.164Z,8.94
2018-01-04T11:32:35.181Z,8.92
2018-01-04T11:33:35.200Z,8.94
2018-01-04T11:34:35.220Z,9.02
2018-01-04T11:35:35.238Z,9.02
2018-01-04T11:36:35.256Z,9.02
2018-01-04T11:37:35.275Z,9.04
2018-01-04T11:38:35.294Z,9.00
2018-01-04T11:39:35.313Z,8.97
2018-01-04T11:40:35.332Z,8.87
2018-01-04T11:41:35.407Z,8.88
2018-01-04T11:42:35.373Z,8.94
2018-01-04T11:43:35.391Z,9.04
2018-01-04T11:44:35.406Z,9.02
2018-01-04T11:45:35.424Z,9.03
2018-01-04T11:46:35.446Z,9.06
2018-01-04T11:47:35.462Z,9.08
2018-01-04T11:48:35.480Z,9.11
2018-01-04T11:49:35.542Z,9.06
2018-01-04T11:50:35.519Z,9.11
2018-01-04T11:51:35.537Z,9.11
2018-01-04T11:52:35.554Z,9.14
2018-01-04T11:53:35.575Z,9.11
2018-01-04T11:54:35.593Z,9.11
2018-01-04T11:55:35.611Z,9.11
2018-01-04T11:56:35.631Z,9.14
2018-01-04T11:57:35.648Z,9.08
2018-01-04T11:58:35.667Z,9.18
2018-01-04T11:59:35.695Z,9.11
2018-01-04T12:00:35.705Z,9.02
2018-01-04T12:01:35.725Z,9.00
2018-01-04T12:02:35.743Z,9.03
2018-01-04T12:03:35.762Z,9.08
2018-01-04T12:04:35.780Z,9.08
2018-01-04T12:05:35.848Z,8.94
2018-01-04T12:06:35.816Z,9.02
2018-01-04T12:07:35.839Z,9.11
2018-01-04T12:08:35.866Z,9.08
2018-01-04T12:09:36.480Z,9.11
2018-01-04T12:10:35.947Z,9.08
2018-01-04T12:11:36.111Z,9.08
2018-01-04T12:12:35.929Z,9.11
2018-01-04T12:13:35.955Z,9.10
2018-01-04T12:14:35.965Z,9.04
2018-01-04T12:15:36.036Z,9.14
2018-01-04T12:16:36.003Z,9.19
2018-01-04T12:17:36.022Z,9.10
2018-01-04T12:18:36.040Z,9.00
2018-01-04T12:19:36.061Z,8.99
2018-01-04T12:20:36.087Z,9.06
2018-01-04T12:21:36.096Z,9.02
2018-01-04T12:22:36.114Z,9.00
2018-01-04T12:23:36.140Z,8.94
2018-01-04T12:24:36.153Z,8.85
2018-01-04T12:25:36.171Z,9.02
2018-01-04T12:26:36.190Z,9.00
2018-01-04T12:27:36.209Z,8.99
2018-01-04T12:28:36.226Z,9.08
2018-01-04T12:29:36.246Z,9.02
2018-01-04T12:30:36.264Z,9.03
2018-01-04T12:31:36.284Z,9.04
2018-01-04T12:32:36.349Z,8.97
2018-01-04T12:33:36.320Z,9.13
2018-01-04T12:34:36.339Z,9.10
2018-01-04T12:35:36.358Z,9.10
2018-01-04T12:36:36.376Z,9.04
2018-01-04T12:37:36.395Z,9.03
2018-01-04T12:38:36.414Z,8.97
2018-01-04T12:39:36.433Z,9.03
2018-01-04T12:40:36.450Z,9.00
2018-01-04T12:41:36.469Z,9.00
2018-01-04T12:42:36.490Z,8.99
2018-01-04T12:43:36.507Z,9.04
2018-01-04T12:44:36.525Z,9.06
2018-01-04T12:45:36.544Z,8.97
2018-01-04T12:46:36.562Z,9.14
2018-01-04T12:47:36.583Z,9.04
2018-01-04T12:48:36.599Z,9.14
2018-01-04T12:49:36.619Z,9.13
2018-01-04T12:50:36.639Z,9.06
2018-01-04T12:51:36.658Z,9.14
2018-01-04T12:52:36.675Z,9.04
2018-01-04T12:53:36.694Z,8.99
2018-01-04T12:54:36.713Z,9.02
2018-01-04T12:55:36.732Z,9.04
2018-01-04T12:56:36.750Z,9.03
2018-01-04T12:57:36.769Z,9.03
2018-01-04T12:58:36.793Z,9.00
2018-01-04T12:59:36.810Z,8.97
2018-01-04T13:00:36.826Z,9.00
2018-01-04T13:01:36.844Z,9.04
2018-01-04T13:02:36.863Z,8.97
2018-01-04T13:03:36.882Z,9.03
2018-01-04T13:04:36.901Z,9.04
2018-01-04T13:05:36.920Z,8.99
2018-01-04T13:06:36.939Z,9.03
2018-01-04T13:07:36.957Z,9.04
2018-01-04T13:08:36.975Z,9.04
2018-01-04T13:09:36.994Z,9.04
2018-01-04T13:10:37.013Z,9.11
2018-01-04T13:11:37.033Z,9.03
2018-01-04T13:12:37.050Z,9.08
2018-01-04T13:13:37.070Z,9.13
2018-01-04T13:14:37.343Z,9.08
2018-01-04T13:15:37.107Z,9.08
2018-01-04T13:16:37.125Z,9.13
2018-01-04T13:17:37.144Z,9.04
2018-01-04T13:18:37.164Z,9.11